Latest Coastal Weather Observations for Hervey Bay

IDQ60701

Issued at 6:31 pm EST Wednesday 7 December 2016 (issued every 10 minutes, with the page automatically refreshed every 10 minutes)

About coastal observations | Map of coastal stations | Coastal observations for QLD | Marine services | Other Formats
Station Details ID: 040405 Name: HERVEY BAY AIRPORT Lat: -25.32 Lon: 152.88 Height: 12.98 m
Data from the previous 72 hours. | See also: Recent months at Hervey Bay
Date/Time
EST
Temp
°C
Wind Pressure Rain since
9am
mm
Weather Cloud Vis
km
Sea
Height
m
Swell
Dir  Spd
kts
Gust
kts
hPa Trend Height
m
Period
s
Dir
07/06:00pm 26.2 N 8 14 1012.4 - 0.0 - Partly cloudy 10 - - - -
07/05:30pm 26.4 N 11 16 1011.7 - 0.0 - - 10 - - - -
07/05:00pm 26.8 N 12 18 1010.9 - 0.0 - - 10 - - - -
07/04:30pm 27.1 N 13 19 1010.6 - 0.0 - - 10 - - - -
07/04:00pm 27.2 N 12 17 1011.1 - 0.0 - - 10 - - - -
07/03:30pm 27.3 N 13 18 1011.3 - 0.0 - - 10 - - - -
07/03:00pm 28.5 N 14 20 1011.5 - 0.0 - Mostly clear 10 - - - -
07/02:30pm 27.8 N 11 16 1011.6 - 0.0 - - 10 - - - -
07/02:00pm 28.0 N 10 17 1011.7 - 0.0 - - 10 - - - -
07/01:30pm 27.9 NNW 13 17 1011.8 - 0.0 - - 10 - - - -
07/01:00pm 28.4 N 12 16 1012.2 - 0.0 - - 10 - - - -
07/12:30pm 27.5 N 12 16 1012.7 - 0.0 - - 10 - - - -
07/12:00pm 28.4 N 14 18 1012.9 - 0.0 - - 10 - - - -
07/11:30am 28.9 N 13 19 1012.9 - 0.0 - - 10 - - - -
07/11:00am 28.9 N 11 17 1013.5 - 0.0 - - 10 - - - -
07/10:30am 28.5 N 12 17 1013.7 - 0.0 - - 10 - - - -
07/10:00am 28.4 N 11 16 1014.1 - 0.0 - - 10 - - - -
07/09:30am 28.0 N 11 16 1014.7 - 0.0 - Partly cloudy 10 - - - -
07/09:00am 28.3 N 9 13 1014.9 - 0.0 - Mostly clear 10 - - - -
07/08:30am 27.3 NNW 9 13 1014.9 - 0.0 - - 10 - - - -
07/08:00am 27.3 NNW 9 13 1014.6 - 0.0 - - 10 - - - -
07/07:30am 27.2 NW 8 11 1014.9 - 0.0 - Partly cloudy 10 - - - -
07/07:00am 26.1 WNW 5 7 1015.0 - 0.0 - Partly cloudy 10 - - - -
07/06:30am 25.6 WSW 4 6 1014.9 - 0.0 - Partly cloudy 10 - - - -
07/06:00am 24.6 SW 2 4 1014.5 - 0.0 - Mostly cloudy 10 - - - -
07/05:30am 24.0 W 3 5 1014.3 - 0.0 - Partly cloudy 10 - - - -
07/05:00am 24.7 WNW 6 7 1013.9 - 0.0 - Partly cloudy 10 - - - -
07/04:30am 24.9 NW 5 7 1013.2 - 0.0 - Partly cloudy 10 - - - -
07/04:00am 24.9 NNW 8 11 1012.8 - 0.0 - Partly cloudy 10 - - - -
07/03:30am 24.6 N 8 11 1011.9 - 0.0 - Partly cloudy 10 - - - -
07/03:00am 24.7 N 8 12 1012.0 - 0.0 - Partly cloudy 10 - - - -
07/02:30am 24.9 N 9 11 1012.2 - 0.0 - Partly cloudy 10 - - - -
07/02:00am 24.6 N 9 13 1011.9 - 0.0 - Partly cloudy 10 - - - -
07/01:30am 24.8 N 10 15 1011.9 - 0.0 - Partly cloudy 10 - - - -
07/01:00am 24.9 N 8 13 1012.3 - 0.0 - Partly cloudy 10 - - - -
07/12:30am 24.9 N 9 15 1012.7 - 0.0 - Partly cloudy 10 - - - -
07/12:00am 25.0 N 11 15 1012.6 - 0.0 - Mostly clear 10 - - - -
 
Date/Time
EST
Temp
°C
Wind Pressure Rain since
9am
mm
Weather Cloud Vis
km
Sea
Height
m
Swell
Dir  Spd
kts
Gust
kts
hPa Trend Height
m
Period
s
Dir
06/11:30pm 25.0 N 9 13 1012.8 - 0.0 - Partly cloudy 10 - - - -
06/11:00pm 25.0 N 9 13 1013.3 - 0.0 - Partly cloudy 10 - - - -
06/10:30pm 25.2 N 9 13 1013.4 - 0.0 - Partly cloudy 10 - - - -
06/10:00pm 25.2 N 9 13 1013.4 - 0.0 - Partly cloudy 10 - - - -
06/09:30pm 25.3 N 9 14 1013.3 - 0.0 - Partly cloudy 10 - - - -
06/09:00pm 25.4 N 9 14 1013.6 - 0.0 - Partly cloudy 10 - - - -
06/08:30pm 25.4 N 11 15 1013.5 - 0.0 - Partly cloudy 10 - - - -
06/08:00pm 25.5 N 8 11 1013.5 - 0.0 - Partly cloudy 10 - - - -
06/07:30pm 25.5 N 10 16 1013.1 - 0.0 - Partly cloudy 10 - - - -
06/07:00pm 25.5 N 12 19 1012.9 - 0.0 - Partly cloudy 10 - - - -
06/06:30pm 25.6 N 10 15 1012.4 - 0.0 - Partly cloudy 10 - - - -
06/06:00pm 26.1 N 13 19 1012.2 - 0.0 - Partly cloudy 10 - - - -
06/05:30pm 26.3 N 13 17 1011.8 - 0.0 - Partly cloudy 10 - - - -
06/05:00pm 26.5 N 14 21 1011.5 - 0.0 - - 10 - - - -
06/04:30pm 27.4 NNW 15 22 1011.6 - 0.0 - - 10 - - - -
06/04:00pm 27.6 NNW 15 22 1011.8 - 0.0 - - 10 - - - -
06/03:30pm 28.0 NNW 15 22 1012.1 - 0.0 - - 10 - - - -
06/03:00pm 28.2 NNW 16 20 1012.6 - 0.0 - - 10 - - - -
06/02:30pm 28.0 N 15 21 1013.0 - 0.0 - - 10 - - - -
06/02:00pm 28.3 N 16 21 1013.4 - 0.0 - - 10 - - - -
06/01:30pm 28.9 N 15 22 1013.8 - 0.0 - - 10 - - - -
06/01:00pm 29.2 N 12 17 1014.5 - 0.0 - - 10 - - - -
06/12:30pm 28.8 N 10 16 1015.1 - 0.0 - - 10 - - - -
06/12:00pm 29.0 N 11 15 1015.5 - 0.0 - - 10 - - - -
06/11:30am 29.4 N 11 14 1016.0 - 0.0 - - 10 - - - -
06/11:00am 29.4 N 9 13 1016.6 - 0.0 - - 10 - - - -
06/10:30am 29.1 NW 7 11 1017.3 - 0.0 - - 10 - - - -
06/10:00am 28.4 N 7 14 1017.5 - 0.0 - - 10 - - - -
06/09:30am 29.1 E 7 11 1017.9 - 0.0 - - 10 - - - -
06/09:00am 27.7 ENE 8 12 1018.3 - 0.0 - - 10 - - - -
06/08:30am 28.0 NE 8 11 1018.5 - 0.0 - Partly cloudy 10 - - - -
06/08:00am 27.6 ENE 9 11 1018.1 - 0.0 - Partly cloudy 10 - - - -
06/07:30am 26.9 NNE 6 8 1017.9 - 0.0 - Partly cloudy 10 - - - -
06/07:00am 25.9 N 4 6 1017.5 - 0.0 - Partly cloudy 10 - - - -
06/06:30am 25.5 NNW 5 7 1016.8 - 0.0 - Partly cloudy 10 - - - -
06/06:00am 25.2 N 8 13 1015.5 - 0.0 - Partly cloudy 10 - - - -
06/05:30am 24.9 N 10 15 1014.8 - 0.0 - Partly cloudy 10 - - - -
06/05:00am 24.9 N 9 14 1014.7 - 0.0 - Partly cloudy 10 - - - -
06/04:30am 24.9 N 11 16 1014.2 - 0.0 - Partly cloudy 10 - - - -
06/04:00am 24.8 N 10 17 1013.7 - 0.0 - Partly cloudy 10 - - - -
06/03:30am 24.5 N 9 14 1013.6 - 0.0 - Partly cloudy 10 - - - -
06/03:00am 24.9 N 11 17 1013.4 - 0.0 - Partly cloudy 10 - - - -
06/02:30am 24.9 N 10 16 1013.5 - 0.0 - Partly cloudy 10 - - - -
06/02:00am 24.9 N 9 14 1014.0 - 0.0 - Partly cloudy 10 - - - -
06/01:30am 25.0 N 10 15 1014.1 - 0.0 - Partly cloudy 10 - - - -
06/01:00am 25.0 N 12 17 1014.0 - 0.0 - Partly cloudy 10 - - - -
06/12:30am 24.9 N 10 17 1014.3 - 0.0 - Partly cloudy 10 - - - -
06/12:00am 25.0 N 12 20 1014.2 - 0.0 - Cloudy 10 - - - -
 
Date/Time
EST
Temp
°C
Wind Pressure Rain since
9am
mm
Weather Cloud Vis
km
Sea
Height
m
Swell
Dir  Spd
kts
Gust
kts
hPa Trend Height
m
Period
s
Dir
05/11:30pm 25.0 N 12 18 1014.2 - 0.0 - Partly cloudy 10 - - - -
05/11:00pm 25.1 N 12 18 1014.5 - 0.0 - Partly cloudy 10 - - - -
05/10:30pm 25.2 N 12 18 1014.5 - 0.0 - Partly cloudy 10 - - - -
05/10:00pm 25.2 N 13 17 1014.5 - 0.0 - Partly cloudy 10 - - - -
05/09:30pm 25.2 N 10 15 1014.5 - 0.0 - Partly cloudy 10 - - - -
05/09:00pm 25.2 N 12 20 1014.2 - 0.0 - Partly cloudy 10 - - - -
05/08:30pm 25.2 N 11 17 1014.2 - 0.0 - Partly cloudy 10 - - - -
05/08:00pm 25.2 N 11 16 1014.0 - 0.0 - Partly cloudy 10 - - - -
05/07:30pm 25.2 N 11 15 1013.8 - 0.0 - Partly cloudy 10 - - - -
05/07:00pm 25.3 N 11 16 1013.7 - 0.0 - Partly cloudy 10 - - - -
05/06:30pm 25.5 N 11 16 1013.8 - 0.0 - Partly cloudy 10 - - - -
05/06:00pm 25.8 N 10 16 1013.7 - 0.0 - Mostly clear 10 - - - -
05/05:30pm 26.2 N 12 16 1013.3 - 0.0 - - 10 - - - -
05/05:00pm 26.4 N 13 18 1013.1 - 0.0 - Partly cloudy 10 - - - -
05/04:30pm 27.3 N 13 19 1013.3 - 0.0 - - 10 - - - -
05/04:00pm 27.3 N 15 19 1013.0 - 0.0 - - 10 - - - -
05/03:30pm 28.0 N 13 19 1013.2 - 0.0 - - 10 - - - -
05/03:00pm 28.1 N 13 19 1013.3 - 0.0 - Mostly clear 10 - - - -
05/02:30pm 28.8 N 12 19 1013.5 - 0.0 - - 10 - - - -
05/02:00pm 28.1 N 14 19 1013.8 - 0.0 - - 10 - - - -
05/01:30pm 28.3 N 14 19 1014.1 - 0.0 - - 10 - - - -
05/01:00pm 29.1 N 14 19 1014.2 - 0.0 - Partly cloudy 10 - - - -
05/12:30pm 28.4 N 13 18 1014.5 - 0.0 - Partly cloudy 10 - - - -
05/12:00pm 28.5 N 12 18 1015.0 - 0.0 - Mostly clear 10 - - - -
05/11:30am 27.9 NNW 13 18 1015.4 - 0.0 - - 10 - - - -
05/11:00am 28.2 N 12 18 1016.0 - 0.0 - Partly cloudy 10 - - - -
05/10:30am 28.5 N 11 16 1016.2 - 0.0 - Partly cloudy 10 - - - -
05/10:00am 27.2 N 12 18 1016.4 - 0.0 - Partly cloudy 10 - - - -
05/09:30am 28.3 N 11 16 1016.3 - 0.0 - Partly cloudy 10 - - - -
05/09:00am 27.2 N 11 15 1016.5 - 0.0 - Partly cloudy 10 - - - -
05/08:30am 27.6 N 12 16 1016.5 - 0.0 - Partly cloudy 10 - - - -
05/08:00am 26.9 N 10 15 1016.5 - 0.0 - Partly cloudy 10 - - - -
05/07:30am 26.9 N 11 15 1016.5 - 0.0 - Partly cloudy 10 - - - -
05/07:00am 26.6 N 10 15 1016.3 - 0.0 - Partly cloudy 10 - - - -
05/06:30am 25.7 NNE 9 12 1016.1 - 0.0 - Partly cloudy 10 - - - -
05/06:00am 25.6 N 8 12 1016.1 - 0.0 - Partly cloudy 10 - - - -
05/05:30am 24.8 N 6 9 1015.9 - 0.0 - Partly cloudy 10 - - - -
05/05:00am 24.7 N 6 8 1015.6 - 0.0 - Partly cloudy 10 - - - -
05/04:30am 24.4 N 7 10 1015.1 - 0.0 - Partly cloudy 10 - - - -
05/04:00am 24.5 NNE 6 8 1014.9 - 0.0 - Partly cloudy 10 - - - -
05/03:30am 24.4 N 6 10 1014.8 - 0.0 - Partly cloudy 10 - - - -
05/03:00am 24.6 N 6 8 1014.5 - 0.0 - Cloudy 10 - - - -
05/02:30am 24.5 N 7 9 1014.5 - 0.0 - Partly cloudy 10 - - - -
05/02:00am 24.8 N 7 10 1014.5 - 0.0 - Partly cloudy 10 - - - -
05/01:30am 24.5 N 9 11 1014.4 - 0.0 - Partly cloudy 10 - - - -
05/01:00am 24.8 N 7 11 1014.8 - 0.0 - Partly cloudy 10 - - - -
05/12:30am 24.7 N 8 11 1015.1 - 0.0 - Partly cloudy 10 - - - -
05/12:00am 24.8 N 9 12 1015.2 - 0.0 - Mostly clear 10 - - - -
 
Date/Time
EST
Temp
°C
Wind Pressure Rain since
9am
mm
Weather Cloud Vis
km
Sea
Height
m
Swell
Dir  Spd
kts
Gust
kts
hPa Trend Height
m
Period
s
Dir
04/11:30pm 24.8 NNE 9 14 1015.1 - 0.0 - Partly cloudy 10 - - - -
04/11:00pm 24.8 NNE 11 16 1015.4 - 0.0 - Partly cloudy 10 - - - -
04/10:30pm 24.7 N 8 14 1015.6 - 0.0 - Partly cloudy 10 - - - -
04/10:00pm 24.9 NNE 9 13 1015.7 - 0.0 - Partly cloudy 10 - - - -
04/09:30pm 24.9 N 9 14 1015.6 - 0.0 - Partly cloudy 10 - - - -
04/09:00pm 25.0 NNE 9 13 1015.3 - 0.0 - Mostly clear 10 - - - -
04/08:30pm 25.0 NNE 10 16 1014.8 - 0.0 - Partly cloudy 10 - - - -
04/08:00pm 25.1 NNE 10 14 1014.4 - 0.0 - Partly cloudy 10 - - - -
04/07:30pm 25.1 N 9 14 1014.2 - 0.0 - - 10 - - - -
04/07:00pm 25.1 NNE 9 13 1014.2 - 0.0 - - 10 - - - -

Other Formats:

Comma delimited format used in spreadsheet applications
http://www.bom.gov.au/fwo/IDQ60701/IDQ60701.95565.axf

JavaScript Object Notation format (JSON) in row-major order
http://www.bom.gov.au/fwo/IDQ60701/IDQ60701.95565.json